createdAt,value
2023-02-25T00:00:14.302Z,968.22
2023-02-25T00:01:14.267Z,968.21
2023-02-25T00:02:14.331Z,968.26
2023-02-25T00:03:14.281Z,968.30
2023-02-25T00:04:14.251Z,968.30
2023-02-25T00:05:14.217Z,968.30
2023-02-25T00:06:14.231Z,968.34
2023-02-25T00:07:14.197Z,968.35
2023-02-25T00:08:14.199Z,968.41
2023-02-25T00:09:14.166Z,968.39
2023-02-25T00:10:14.185Z,968.36
2023-02-25T00:11:14.147Z,968.38
2023-02-25T00:12:14.157Z,968.42
2023-02-25T00:13:19.156Z,968.41
2023-02-25T00:14:14.152Z,968.39
2023-02-25T00:15:14.108Z,968.38
2023-02-25T00:16:14.171Z,968.39
2023-02-25T00:17:14.114Z,968.37
2023-02-25T00:18:14.089Z,968.36
2023-02-25T00:19:14.066Z,968.36
2023-02-25T00:20:14.106Z,968.37
2023-02-25T00:21:14.058Z,968.40
2023-02-25T00:22:14.084Z,968.42
2023-02-25T00:23:14.027Z,968.41
2023-02-25T00:24:16.736Z,968.40
2023-02-25T00:25:14.006Z,968.43
2023-02-25T00:26:14.007Z,968.47
2023-02-25T00:27:14.000Z,968.46
2023-02-25T00:28:14.015Z,968.46
2023-02-25T00:29:13.961Z,968.47
2023-02-25T00:30:13.990Z,968.46
2023-02-25T00:31:14.048Z,968.46
2023-02-25T00:32:14.106Z,968.44
2023-02-25T00:33:13.935Z,968.42
2023-02-25T00:34:13.958Z,968.43
2023-02-25T00:35:13.924Z,968.41
2023-02-25T00:36:13.922Z,968.40
2023-02-25T00:37:13.954Z,968.43
2023-02-25T00:38:16.268Z,968.43
2023-02-25T00:39:13.897Z,968.42
2023-02-25T00:40:13.877Z,968.40
2023-02-25T00:41:13.845Z,968.37
2023-02-25T00:42:13.847Z,968.36
2023-02-25T00:43:13.834Z,968.37
2023-02-25T00:44:13.843Z,968.38
2023-02-25T00:45:13.807Z,968.41
2023-02-25T00:46:13.873Z,968.42
2023-02-25T00:47:13.779Z,968.44
2023-02-25T00:48:13.826Z,968.44
2023-02-25T00:49:27.002Z,968.46
2023-02-25T00:50:13.787Z,968.43
2023-02-25T00:51:13.739Z,968.40
2023-02-25T00:52:13.761Z,968.43
2023-02-25T00:53:13.721Z,968.44
2023-02-25T00:54:13.746Z,968.45
2023-02-25T00:55:13.706Z,968.46
2023-02-25T00:56:13.702Z,968.45
2023-02-25T00:57:13.686Z,968.50
2023-02-25T00:58:13.698Z,968.50
2023-02-25T00:59:13.657Z,968.52
2023-02-25T01:00:13.692Z,968.55
2023-02-25T01:01:13.672Z,968.57
2023-02-25T01:02:13.642Z,968.52
2023-02-25T01:03:13.623Z,968.54
2023-02-25T01:04:13.645Z,968.55
2023-02-25T01:05:13.597Z,968.53
2023-02-25T01:06:13.598Z,968.51
2023-02-25T01:07:13.572Z,968.50
2023-02-25T01:08:13.597Z,968.49
2023-02-25T01:09:13.561Z,968.53
2023-02-25T01:10:13.585Z,968.53
2023-02-25T01:11:13.535Z,968.55
2023-02-25T01:12:13.536Z,968.54
2023-02-25T01:13:13.511Z,968.51
2023-02-25T01:14:13.532Z,968.53
2023-02-25T01:15:13.507Z,968.49
2023-02-25T01:16:13.587Z,968.51
2023-02-25T01:17:13.484Z,968.51
2023-02-25T01:18:13.535Z,968.52
2023-02-25T01:19:13.533Z,968.53
2023-02-25T01:20:13.487Z,968.54
2023-02-25T01:21:13.429Z,968.52
2023-02-25T01:22:14.336Z,968.48
2023-02-25T01:23:13.419Z,968.48
2023-02-25T01:24:13.517Z,968.48
2023-02-25T01:25:13.384Z,968.50
2023-02-25T01:26:13.412Z,968.51
2023-02-25T01:27:13.368Z,968.50
2023-02-25T01:28:13.377Z,968.50
2023-02-25T01:29:13.452Z,968.50
2023-02-25T01:30:13.370Z,968.51
2023-02-25T01:31:13.423Z,968.53
2023-02-25T01:32:13.533Z,968.54
2023-02-25T01:33:13.309Z,968.54
2023-02-25T01:34:13.317Z,968.54
2023-02-25T01:35:13.283Z,968.53
2023-02-25T01:36:13.309Z,968.52
2023-02-25T01:37:13.281Z,968.49
2023-02-25T01:38:13.275Z,968.51
2023-02-25T01:39:13.266Z,968.50
2023-02-25T01:40:13.265Z,968.46
2023-02-25T01:41:13.241Z,968.48
2023-02-25T01:42:13.251Z,968.48
2023-02-25T01:43:13.204Z,968.50
2023-02-25T01:44:13.218Z,968.50
2023-02-25T01:45:13.204Z,968.53
2023-02-25T01:46:13.255Z,968.53
2023-02-25T01:47:13.175Z,968.53
2023-02-25T01:48:13.180Z,968.56
2023-02-25T01:49:13.149Z,968.58
2023-02-25T01:50:13.167Z,968.57
2023-02-25T01:51:13.167Z,968.57
2023-02-25T01:52:13.133Z,968.58
2023-02-25T01:53:13.120Z,968.59
2023-02-25T01:54:13.122Z,968.58
2023-02-25T01:55:13.118Z,968.58
2023-02-25T01:56:13.107Z,968.54
2023-02-25T01:57:13.068Z,968.58
2023-02-25T01:58:13.085Z,968.60
2023-02-25T01:59:13.042Z,968.61
2023-02-25T02:00:13.064Z,968.61
2023-02-25T02:01:13.084Z,968.63
2023-02-25T02:02:13.088Z,968.61
2023-02-25T02:03:13.009Z,968.62
2023-02-25T02:04:13.025Z,968.58
2023-02-25T02:05:12.995Z,968.65
2023-02-25T02:06:13.011Z,968.65
2023-02-25T02:07:12.961Z,968.63
2023-02-25T02:08:12.985Z,968.63
2023-02-25T02:09:12.938Z,968.60
2023-02-25T02:10:12.975Z,968.61
2023-02-25T02:11:12.939Z,968.61
2023-02-25T02:12:12.938Z,968.59
2023-02-25T02:13:12.914Z,968.57
2023-02-25T02:14:12.911Z,968.58
2023-02-25T02:15:12.884Z,968.59
2023-02-25T02:16:12.965Z,968.59
2023-02-25T02:17:12.880Z,968.61
2023-02-25T02:18:12.897Z,968.65
2023-02-25T02:19:12.836Z,968.64
2023-02-25T02:20:12.876Z,968.64
2023-02-25T02:21:12.821Z,968.64
2023-02-25T02:22:12.839Z,968.61
2023-02-25T02:23:12.803Z,968.60
2023-02-25T02:24:12.821Z,968.58
2023-02-25T02:25:12.775Z,968.57
2023-02-25T02:26:12.809Z,968.57
2023-02-25T02:27:12.756Z,968.56
2023-02-25T02:28:12.772Z,968.56
2023-02-25T02:29:12.734Z,968.58
2023-02-25T02:30:12.748Z,968.56
2023-02-25T02:31:12.813Z,968.58
2023-02-25T02:32:12.826Z,968.59
2023-02-25T02:33:12.706Z,968.60
2023-02-25T02:34:12.725Z,968.61
2023-02-25T02:35:12.678Z,968.62
2023-02-25T02:36:12.718Z,968.63
2023-02-25T02:37:12.657Z,968.65
2023-02-25T02:38:12.658Z,968.70
2023-02-25T02:39:12.637Z,968.70
2023-02-25T02:40:12.649Z,968.72
2023-02-25T02:41:12.609Z,968.70
2023-02-25T02:42:12.616Z,968.69
2023-02-25T02:43:12.594Z,968.72
2023-02-25T02:44:12.612Z,968.74
2023-02-25T02:45:12.582Z,968.73
2023-02-25T02:46:12.645Z,968.74
2023-02-25T02:47:12.558Z,968.76
2023-02-25T02:48:12.548Z,968.77
2023-02-25T02:49:12.525Z,968.77
2023-02-25T02:50:12.531Z,968.79
2023-02-25T02:51:12.524Z,968.82
2023-02-25T02:52:12.521Z,968.81
2023-02-25T02:53:12.477Z,968.82
2023-02-25T02:54:12.483Z,968.81
2023-02-25T02:55:12.471Z,968.84
2023-02-25T02:56:12.485Z,968.84
2023-02-25T02:57:12.450Z,968.86
2023-02-25T02:58:12.441Z,968.89
2023-02-25T02:59:12.469Z,968.89
2023-02-25T03:00:12.440Z,968.87
2023-02-25T03:01:12.420Z,968.85
2023-02-25T03:02:12.415Z,968.85
2023-02-25T03:03:12.376Z,968.87
2023-02-25T03:04:12.418Z,968.85
2023-02-25T03:05:12.381Z,968.83
2023-02-25T03:06:12.380Z,968.85
2023-02-25T03:07:12.341Z,968.80
2023-02-25T03:08:12.354Z,968.82
2023-02-25T03:09:12.319Z,968.80
2023-02-25T03:10:12.330Z,968.81
2023-02-25T03:11:12.293Z,968.81
2023-02-25T03:12:12.305Z,968.82
2023-02-25T03:13:12.283Z,968.83
2023-02-25T03:14:12.283Z,968.86
2023-02-25T03:15:12.261Z,968.86
2023-02-25T03:16:12.302Z,968.87
2023-02-25T03:17:12.240Z,968.85
2023-02-25T03:18:12.257Z,968.84
2023-02-25T03:19:12.215Z,968.86
2023-02-25T03:20:12.236Z,968.86
2023-02-25T03:21:12.201Z,968.86
2023-02-25T03:22:12.229Z,968.86
2023-02-25T03:23:12.175Z,968.87
2023-02-25T03:24:12.178Z,968.84
2023-02-25T03:25:12.169Z,968.80
2023-02-25T03:26:12.156Z,968.82
2023-02-25T03:27:12.140Z,968.83
2023-02-25T03:28:12.158Z,968.84
2023-02-25T03:29:12.117Z,968.84
2023-02-25T03:30:12.118Z,968.84
2023-02-25T03:31:12.085Z,968.82
2023-02-25T03:32:12.224Z,968.82
2023-02-25T03:33:12.072Z,968.80
2023-02-25T03:34:12.112Z,968.83
2023-02-25T03:35:12.060Z,968.85
2023-02-25T03:36:12.110Z,968.91
2023-02-25T03:37:12.029Z,968.85
2023-02-25T03:38:12.059Z,968.83
2023-02-25T03:39:12.014Z,968.84
2023-02-25T03:40:12.065Z,968.85
2023-02-25T03:41:11.985Z,968.88
2023-02-25T03:42:12.008Z,968.90
2023-02-25T03:43:11.987Z,968.90
2023-02-25T03:44:11.975Z,968.91
2023-02-25T03:45:11.980Z,968.93
2023-02-25T03:46:12.123Z,968.97
2023-02-25T03:47:11.959Z,968.95
2023-02-25T03:48:11.928Z,968.96
2023-02-25T03:49:11.937Z,968.97
2023-02-25T03:50:11.905Z,968.97
2023-02-25T03:51:11.920Z,968.97
2023-02-25T03:52:11.898Z,969.02
2023-02-25T03:53:11.891Z,969.02
2023-02-25T03:54:11.857Z,969.06
2023-02-25T03:55:11.873Z,969.04
2023-02-25T03:56:11.842Z,969.02
2023-02-25T03:57:11.847Z,969.06
2023-02-25T03:58:11.816Z,969.06
2023-02-25T03:59:11.825Z,969.07
2023-02-25T04:00:11.795Z,969.07
2023-02-25T04:01:11.830Z,969.08
2023-02-25T04:02:11.800Z,969.09
2023-02-25T04:03:11.763Z,969.11
2023-02-25T04:04:11.774Z,969.11
2023-02-25T04:05:11.750Z,969.11
2023-02-25T04:06:11.741Z,969.14
2023-02-25T04:07:11.747Z,969.10
2023-02-25T04:08:11.701Z,969.09
2023-02-25T04:09:11.699Z,969.13
2023-02-25T04:10:11.677Z,969.17
2023-02-25T04:11:11.685Z,969.17
2023-02-25T04:12:11.669Z,969.20
2023-02-25T04:13:11.679Z,969.20
2023-02-25T04:14:11.637Z,969.19
2023-02-25T04:15:11.665Z,969.21
2023-02-25T04:16:11.699Z,969.21
2023-02-25T04:17:11.667Z,969.20
2023-02-25T04:18:11.590Z,969.23
2023-02-25T04:19:11.608Z,969.22
2023-02-25T04:20:11.569Z,969.22
2023-02-25T04:21:11.597Z,969.21
2023-02-25T04:22:11.562Z,969.21
2023-02-25T04:23:11.560Z,969.21
2023-02-25T04:24:11.530Z,969.20
2023-02-25T04:25:11.532Z,969.21
2023-02-25T04:26:11.507Z,969.21
2023-02-25T04:27:11.531Z,969.22
2023-02-25T04:28:11.489Z,969.25
2023-02-25T04:29:11.492Z,969.26
2023-02-25T04:30:11.468Z,969.28
2023-02-25T04:31:11.563Z,969.31
2023-02-25T04:32:11.545Z,969.34
2023-02-25T04:33:11.477Z,969.36
2023-02-25T04:34:11.427Z,969.36
2023-02-25T04:35:11.432Z,969.41
2023-02-25T04:36:11.408Z,969.45
2023-02-25T04:37:11.412Z,969.47
2023-02-25T04:38:11.398Z,969.47
2023-02-25T04:39:11.411Z,969.45
2023-02-25T04:40:11.361Z,969.47
2023-02-25T04:41:11.379Z,969.47
2023-02-25T04:42:11.348Z,969.48
2023-02-25T04:43:11.352Z,969.49
2023-02-25T04:44:11.326Z,969.49
2023-02-25T04:45:11.345Z,969.51
2023-02-25T04:46:11.343Z,969.50
2023-02-25T04:47:11.338Z,969.51
2023-02-25T04:48:11.279Z,969.51
2023-02-25T04:49:11.296Z,969.53
2023-02-25T04:50:11.279Z,969.51
2023-02-25T04:51:11.258Z,969.50
2023-02-25T04:52:11.238Z,969.50
2023-02-25T04:53:11.254Z,969.51
2023-02-25T04:54:11.228Z,969.53
2023-02-25T04:55:11.237Z,969.52
2023-02-25T04:56:11.192Z,969.52
2023-02-25T04:57:11.209Z,969.53
2023-02-25T04:58:11.171Z,969.43
2023-02-25T04:59:11.179Z,969.48
2023-02-25T05:00:11.163Z,969.45
2023-02-25T05:01:11.164Z,969.47
2023-02-25T05:02:11.175Z,969.46
2023-02-25T05:03:11.136Z,969.44
2023-02-25T05:04:11.124Z,969.41
2023-02-25T05:05:11.255Z,969.40
2023-02-25T05:06:17.580Z,969.37
2023-02-25T05:07:11.105Z,969.36
2023-02-25T05:08:11.063Z,969.36
2023-02-25T05:09:11.093Z,969.32
2023-02-25T05:10:11.063Z,969.29
2023-02-25T05:11:11.076Z,969.37
2023-02-25T05:12:11.035Z,969.36
2023-02-25T05:13:11.044Z,969.39
2023-02-25T05:14:11.015Z,969.41
2023-02-25T05:15:11.030Z,969.43
2023-02-25T05:16:11.108Z,969.47
2023-02-25T05:17:10.986Z,969.50
2023-02-25T05:18:10.963Z,969.53
2023-02-25T05:19:10.982Z,969.54
2023-02-25T05:20:11.002Z,969.57
2023-02-25T05:21:10.950Z,969.62
2023-02-25T05:22:10.929Z,969.62
2023-02-25T05:23:10.938Z,969.62
2023-02-25T05:24:10.901Z,969.61
2023-02-25T05:25:10.906Z,969.63
2023-02-25T05:26:10.876Z,969.63
2023-02-25T05:27:10.907Z,969.60
2023-02-25T05:28:10.872Z,969.62
2023-02-25T05:29:10.869Z,969.63
2023-02-25T05:30:10.854Z,969.59
2023-02-25T05:31:11.002Z,969.57
2023-02-25T05:32:10.918Z,969.60
2023-02-25T05:33:10.830Z,969.61
2023-02-25T05:34:10.796Z,969.62
2023-02-25T05:35:10.801Z,969.61
2023-02-25T05:36:10.775Z,969.56
2023-02-25T05:37:10.808Z,969.57
2023-02-25T05:38:10.751Z,969.54
2023-02-25T05:39:10.775Z,969.57
2023-02-25T05:40:10.741Z,969.63
2023-02-25T05:41:10.751Z,969.59
2023-02-25T05:42:10.720Z,969.61
2023-02-25T05:43:10.744Z,969.61
2023-02-25T05:44:10.693Z,969.65
2023-02-25T05:45:10.653Z,969.63
2023-02-25T05:46:10.670Z,969.65
2023-02-25T05:47:10.697Z,969.62
2023-02-25T05:48:10.616Z,969.65
2023-02-25T05:49:10.653Z,969.64
2023-02-25T05:50:10.585Z,969.70
2023-02-25T05:51:10.583Z,969.67
2023-02-25T05:52:10.561Z,969.68
2023-02-25T05:53:10.630Z,969.70
2023-02-25T05:54:10.596Z,969.73
2023-02-25T05:55:10.562Z,969.71
2023-02-25T05:56:10.508Z,969.71
2023-02-25T05:57:10.543Z,969.73
2023-02-25T05:58:10.515Z,969.76
2023-02-25T05:59:10.502Z,969.72
2023-02-25T06:00:10.474Z,969.69
2023-02-25T06:01:10.481Z,969.62
2023-02-25T06:02:10.506Z,969.55
2023-02-25T06:03:10.537Z,969.48
2023-02-25T06:04:10.439Z,969.47
2023-02-25T06:05:10.457Z,969.48
2023-02-25T06:06:10.437Z,969.54
2023-02-25T06:07:10.418Z,969.48
2023-02-25T06:08:10.392Z,969.44
2023-02-25T06:09:10.484Z,969.41
2023-02-25T06:10:10.377Z,969.44
2023-02-25T06:11:10.380Z,969.40
2023-02-25T06:12:10.342Z,969.43
2023-02-25T06:13:10.359Z,969.34
2023-02-25T06:14:10.381Z,969.38
2023-02-25T06:15:10.345Z,969.45
2023-02-25T06:16:10.358Z,969.57
2023-02-25T06:17:10.321Z,969.70
2023-02-25T06:18:10.309Z,969.83
2023-02-25T06:19:10.285Z,969.90
2023-02-25T06:20:10.267Z,969.95
2023-02-25T06:21:10.299Z,969.96
2023-02-25T06:22:10.238Z,969.98
2023-02-25T06:23:10.254Z,969.98
2023-02-25T06:24:10.218Z,969.98
2023-02-25T06:25:10.232Z,969.99
2023-02-25T06:26:10.236Z,970.02
2023-02-25T06:27:10.221Z,970.05
2023-02-25T06:28:10.172Z,970.08
2023-02-25T06:29:10.206Z,970.12
2023-02-25T06:30:10.147Z,970.10
2023-02-25T06:31:10.249Z,970.11
2023-02-25T06:32:10.332Z,970.14
2023-02-25T06:33:10.149Z,970.14
2023-02-25T06:34:10.110Z,970.14
2023-02-25T06:35:10.138Z,970.16
2023-02-25T06:36:10.086Z,970.18
2023-02-25T06:37:10.102Z,970.20
2023-02-25T06:38:10.086Z,970.23
2023-02-25T06:39:10.086Z,970.27
2023-02-25T06:40:10.054Z,970.27
2023-02-25T06:41:10.060Z,970.30
2023-02-25T06:42:10.036Z,970.29
2023-02-25T06:43:10.044Z,970.30
2023-02-25T06:44:10.009Z,970.29
2023-02-25T06:45:10.024Z,970.31
2023-02-25T06:46:10.118Z,970.34
2023-02-25T06:47:10.003Z,970.30
2023-02-25T06:48:09.984Z,970.32
2023-02-25T06:49:09.962Z,970.30
2023-02-25T06:50:09.950Z,970.28
2023-02-25T06:51:09.948Z,970.31
2023-02-25T06:52:09.956Z,970.32
2023-02-25T06:53:09.931Z,970.34
2023-02-25T06:54:09.901Z,970.33
2023-02-25T06:55:09.937Z,970.33
2023-02-25T06:56:09.882Z,970.34
2023-02-25T06:57:09.899Z,970.32
2023-02-25T06:58:09.859Z,970.32
2023-02-25T06:59:09.880Z,970.33
2023-02-25T07:00:09.848Z,970.35
2023-02-25T07:01:09.936Z,970.38
2023-02-25T07:02:09.898Z,970.37
2023-02-25T07:03:09.838Z,970.37
2023-02-25T07:04:09.879Z,970.34
2023-02-25T07:05:09.803Z,970.33
2023-02-25T07:06:09.781Z,970.34
2023-02-25T07:07:09.822Z,970.36
2023-02-25T07:08:09.764Z,970.40
2023-02-25T07:09:09.766Z,970.38
2023-02-25T07:10:09.749Z,970.40
2023-02-25T07:11:09.766Z,970.42
2023-02-25T07:12:09.719Z,970.38
2023-02-25T07:13:09.729Z,970.42
2023-02-25T07:14:09.694Z,970.37
2023-02-25T07:15:09.709Z,970.39
2023-02-25T07:16:09.744Z,970.41
2023-02-25T07:17:09.694Z,970.41
2023-02-25T07:18:09.664Z,970.42
2023-02-25T07:19:09.664Z,970.37
2023-02-25T07:20:09.632Z,970.39
2023-02-25T07:21:09.656Z,970.39
2023-02-25T07:22:09.614Z,970.37
2023-02-25T07:23:09.638Z,970.33
2023-02-25T07:24:09.592Z,970.28
2023-02-25T07:25:09.623Z,970.27
2023-02-25T07:26:09.572Z,970.27
2023-02-25T07:27:09.577Z,970.26
2023-02-25T07:28:09.553Z,970.29
2023-02-25T07:29:09.771Z,970.33
2023-02-25T07:30:09.529Z,970.39
2023-02-25T07:31:09.649Z,970.34
2023-02-25T07:32:09.702Z,970.36
2023-02-25T07:33:09.540Z,970.40
2023-02-25T07:34:09.484Z,970.39
2023-02-25T07:35:09.518Z,970.41
2023-02-25T07:36:09.480Z,970.42
2023-02-25T07:37:09.482Z,970.42
2023-02-25T07:38:09.445Z,970.44
2023-02-25T07:39:09.468Z,970.43
2023-02-25T07:40:09.436Z,970.47
2023-02-25T07:41:09.439Z,970.43
2023-02-25T07:42:09.408Z,970.42
2023-02-25T07:43:09.411Z,970.42
2023-02-25T07:44:09.412Z,970.39
2023-02-25T07:45:09.410Z,970.41
2023-02-25T07:46:09.433Z,970.42
2023-02-25T07:47:09.378Z,970.41
2023-02-25T07:48:09.351Z,970.43
2023-02-25T07:49:09.349Z,970.44
2023-02-25T07:50:12.337Z,970.46
2023-02-25T07:51:09.370Z,970.43
2023-02-25T07:52:09.306Z,970.42
2023-02-25T07:53:09.334Z,970.46
2023-02-25T07:54:09.283Z,970.47
2023-02-25T07:55:09.301Z,970.42
2023-02-25T07:56:09.267Z,970.46
2023-02-25T07:57:09.293Z,970.49
2023-02-25T07:58:09.248Z,970.47
2023-02-25T07:59:09.232Z,970.50
2023-02-25T08:00:09.261Z,970.49
2023-02-25T08:01:09.273Z,970.52
2023-02-25T08:02:09.270Z,970.54
2023-02-25T08:03:09.191Z,970.57
2023-02-25T08:04:09.263Z,970.56
2023-02-25T08:05:09.202Z,970.58
2023-02-25T08:06:09.218Z,970.58
2023-02-25T08:07:09.157Z,970.58
2023-02-25T08:08:09.167Z,970.61
2023-02-25T08:09:09.128Z,970.65
2023-02-25T08:10:09.141Z,970.63
2023-02-25T08:11:09.132Z,970.65
2023-02-25T08:12:09.112Z,970.65
2023-02-25T08:13:09.212Z,970.65
2023-02-25T08:14:09.226Z,970.66
2023-02-25T08:15:09.067Z,970.64
2023-02-25T08:16:09.158Z,970.64
2023-02-25T08:17:09.062Z,970.62
2023-02-25T08:18:09.062Z,970.62
2023-02-25T08:19:09.024Z,970.60
2023-02-25T08:20:09.044Z,970.61
2023-02-25T08:21:09.003Z,970.59
2023-02-25T08:22:09.034Z,970.63
2023-02-25T08:23:08.998Z,970.61
2023-02-25T08:24:08.995Z,970.62
2023-02-25T08:25:08.965Z,970.58
2023-02-25T08:26:08.970Z,970.58
2023-02-25T08:27:08.958Z,970.57
2023-02-25T08:28:08.966Z,970.59
2023-02-25T08:29:08.922Z,970.58
2023-02-25T08:30:08.941Z,970.57
2023-02-25T08:31:09.021Z,970.55
2023-02-25T08:32:09.077Z,970.57
2023-02-25T08:33:08.907Z,970.57
2023-02-25T08:34:08.911Z,970.59
2023-02-25T08:35:08.863Z,970.59
2023-02-25T08:36:08.888Z,970.59
2023-02-25T08:37:08.898Z,970.62
2023-02-25T08:38:08.870Z,970.65
2023-02-25T08:39:08.821Z,970.61
2023-02-25T08:40:08.824Z,970.59
2023-02-25T08:41:08.815Z,970.63
2023-02-25T08:42:08.805Z,970.64
2023-02-25T08:43:08.787Z,970.62
2023-02-25T08:44:08.810Z,970.63
2023-02-25T08:45:08.759Z,970.62
2023-02-25T08:46:08.791Z,970.64
2023-02-25T08:47:08.734Z,970.65
2023-02-25T08:48:08.753Z,970.61
2023-02-25T08:49:08.803Z,970.67
2023-02-25T08:50:08.740Z,970.58
2023-02-25T08:51:08.919Z,970.63
2023-02-25T08:52:08.726Z,970.66
2023-02-25T08:53:08.676Z,970.66
2023-02-25T08:54:08.699Z,970.61
2023-02-25T08:55:08.652Z,970.67
2023-02-25T08:56:08.695Z,970.66
2023-02-25T08:57:08.659Z,970.65
2023-02-25T08:58:08.657Z,970.64
2023-02-25T08:59:08.614Z,970.67
2023-02-25T09:00:08.609Z,970.64
2023-02-25T09:01:08.812Z,970.69
2023-02-25T09:02:08.603Z,970.76
2023-02-25T09:03:08.595Z,970.76
2023-02-25T09:04:08.609Z,970.70
2023-02-25T09:05:08.543Z,970.75
2023-02-25T09:06:08.563Z,970.72
2023-02-25T09:07:08.526Z,970.71
2023-02-25T09:08:08.547Z,970.73
2023-02-25T09:09:08.501Z,970.72
2023-02-25T09:10:08.608Z,970.73
2023-02-25T09:11:08.506Z,970.75
2023-02-25T09:12:08.488Z,970.75
2023-02-25T09:13:08.487Z,970.75
2023-02-25T09:14:08.461Z,970.72
2023-02-25T09:15:08.437Z,970.72
2023-02-25T09:16:08.466Z,970.77
2023-02-25T09:17:08.437Z,970.79
2023-02-25T09:18:08.422Z,970.76
2023-02-25T09:19:08.413Z,970.74
2023-02-25T09:20:08.402Z,970.78
2023-02-25T09:21:08.385Z,970.80
2023-02-25T09:22:08.433Z,970.75
2023-02-25T09:23:08.369Z,970.81
2023-02-25T09:24:08.366Z,970.81
2023-02-25T09:25:08.344Z,970.81
2023-02-25T09:26:08.361Z,970.81
2023-02-25T09:27:08.364Z,970.82
2023-02-25T09:28:08.329Z,970.83
2023-02-25T09:29:08.298Z,970.83
2023-02-25T09:30:08.310Z,970.84
2023-02-25T09:31:08.338Z,970.83
2023-02-25T09:32:08.413Z,970.84
2023-02-25T09:33:08.432Z,970.83
2023-02-25T09:34:08.307Z,970.81
2023-02-25T09:35:08.229Z,970.86
2023-02-25T09:36:08.245Z,970.80
2023-02-25T09:37:08.211Z,970.80
2023-02-25T09:38:08.211Z,970.81
2023-02-25T09:39:08.195Z,970.80
2023-02-25T09:40:08.207Z,970.82
2023-02-25T09:41:08.171Z,970.82
2023-02-25T09:42:08.172Z,970.80
2023-02-25T09:43:08.181Z,970.82
2023-02-25T09:44:08.175Z,970.81
2023-02-25T09:45:08.136Z,970.78
2023-02-25T09:46:08.149Z,970.79
2023-02-25T09:47:08.104Z,970.76
2023-02-25T09:48:08.128Z,970.81
2023-02-25T09:49:08.099Z,970.79
2023-02-25T09:50:08.085Z,970.78
2023-02-25T09:51:08.140Z,970.78
2023-02-25T09:52:08.071Z,970.79
2023-02-25T09:53:08.040Z,970.73
2023-02-25T09:54:08.587Z,970.74
2023-02-25T09:55:08.040Z,970.74
2023-02-25T09:56:08.032Z,970.79
2023-02-25T09:57:08.001Z,970.77
2023-02-25T09:58:08.008Z,970.78
2023-02-25T09:59:07.981Z,970.77
2023-02-25T10:00:07.999Z,970.75
2023-02-25T10:01:08.005Z,970.77
2023-02-25T10:02:08.176Z,970.70
2023-02-25T10:03:08.212Z,970.71
2023-02-25T10:04:07.966Z,970.71
2023-02-25T10:05:07.940Z,970.68
2023-02-25T10:06:07.938Z,970.70
2023-02-25T10:07:08.005Z,970.70
2023-02-25T10:08:07.920Z,970.73
2023-02-25T10:09:07.884Z,970.67
2023-02-25T10:10:07.903Z,970.69
2023-02-25T10:11:07.856Z,970.68
2023-02-25T10:12:07.872Z,970.67
2023-02-25T10:13:07.838Z,970.67
2023-02-25T10:14:07.857Z,970.63
2023-02-25T10:15:07.820Z,970.65
2023-02-25T10:16:07.830Z,970.60
2023-02-25T10:17:07.812Z,970.62
2023-02-25T10:18:07.803Z,970.62
2023-02-25T10:19:07.779Z,970.61
2023-02-25T10:20:07.791Z,970.61
2023-02-25T10:21:07.765Z,970.63
2023-02-25T10:22:07.774Z,970.61
2023-02-25T10:23:07.743Z,970.64
2023-02-25T10:24:07.754Z,970.65
2023-02-25T10:25:07.714Z,970.70
2023-02-25T10:26:07.717Z,970.64
2023-02-25T10:27:07.690Z,970.64
2023-02-25T10:28:07.714Z,970.66
2023-02-25T10:29:07.677Z,970.68
2023-02-25T10:30:07.690Z,970.69
2023-02-25T10:31:07.790Z,970.72
2023-02-25T10:32:07.810Z,970.70
2023-02-25T10:33:07.628Z,970.74
2023-02-25T10:34:07.653Z,970.70
2023-02-25T10:35:07.605Z,970.68
2023-02-25T10:36:07.620Z,970.70
2023-02-25T10:37:07.597Z,970.68
2023-02-25T10:38:07.590Z,970.64
2023-02-25T10:39:07.565Z,970.60
2023-02-25T10:40:07.582Z,970.62
2023-02-25T10:41:07.559Z,970.62
2023-02-25T10:42:07.563Z,970.60
2023-02-25T10:43:07.529Z,970.61
2023-02-25T10:44:07.540Z,970.61
2023-02-25T10:45:07.517Z,970.59
2023-02-25T10:46:07.542Z,970.58
2023-02-25T10:47:07.482Z,970.60
2023-02-25T10:48:07.497Z,970.52
2023-02-25T10:49:15.719Z,970.57
2023-02-25T10:50:07.490Z,970.50
2023-02-25T10:51:07.451Z,970.52
2023-02-25T10:52:07.449Z,970.48
2023-02-25T10:53:07.421Z,970.46
2023-02-25T10:54:07.443Z,970.46
2023-02-25T10:55:07.417Z,970.43
2023-02-25T10:56:07.408Z,970.39
2023-02-25T10:57:07.376Z,970.36
2023-02-25T10:58:07.384Z,970.37
2023-02-25T10:59:07.362Z,970.37
2023-02-25T11:00:07.377Z,970.34
2023-02-25T11:01:07.381Z,970.38
2023-02-25T11:02:07.404Z,970.37
2023-02-25T11:03:07.317Z,970.37
2023-02-25T11:04:07.331Z,970.35
2023-02-25T11:05:07.291Z,970.35
2023-02-25T11:06:07.329Z,970.33
2023-02-25T11:07:07.276Z,970.33
2023-02-25T11:08:07.300Z,970.32
2023-02-25T11:09:07.270Z,970.35
2023-02-25T11:10:07.263Z,970.34
2023-02-25T11:11:07.233Z,970.32
2023-02-25T11:12:07.259Z,970.36
2023-02-25T11:13:07.207Z,970.36
2023-02-25T11:14:07.238Z,970.35
2023-02-25T11:15:07.186Z,970.31
2023-02-25T11:16:07.224Z,970.35
2023-02-25T11:17:08.416Z,970.37
2023-02-25T11:18:07.178Z,970.39
2023-02-25T11:19:07.167Z,970.38
2023-02-25T11:20:07.181Z,970.50
2023-02-25T11:21:07.133Z,970.50
2023-02-25T11:22:07.159Z,970.48
2023-02-25T11:23:07.107Z,970.46
2023-02-25T11:24:07.113Z,970.45
2023-02-25T11:25:07.089Z,970.42
2023-02-25T11:26:07.091Z,970.47
2023-02-25T11:27:07.105Z,970.44
2023-02-25T11:28:07.068Z,970.40
2023-02-25T11:29:07.044Z,970.41
2023-02-25T11:30:07.048Z,970.39
2023-02-25T11:31:07.190Z,970.36
2023-02-25T11:32:07.155Z,970.38
2023-02-25T11:33:07.036Z,970.39
2023-02-25T11:34:07.013Z,970.38
2023-02-25T11:35:06.976Z,970.39
2023-02-25T11:36:06.999Z,970.36
2023-02-25T11:37:07.808Z,970.36
2023-02-25T11:38:06.982Z,970.37
2023-02-25T11:39:06.940Z,970.38
2023-02-25T11:40:06.949Z,970.35
2023-02-25T11:41:06.914Z,970.38
2023-02-25T11:42:06.930Z,970.35
2023-02-25T11:43:06.914Z,970.33
2023-02-25T11:44:06.917Z,970.33
2023-02-25T11:45:06.871Z,970.33
2023-02-25T11:46:06.912Z,970.31
2023-02-25T11:47:06.868Z,970.31
2023-02-25T11:48:06.874Z,970.31
2023-02-25T11:49:06.850Z,970.29
2023-02-25T11:50:06.856Z,970.22
2023-02-25T11:51:06.812Z,970.21
2023-02-25T11:52:06.833Z,970.17
2023-02-25T11:53:06.795Z,970.16
2023-02-25T11:54:06.801Z,970.16
2023-02-25T11:55:08.960Z,970.12
2023-02-25T11:56:06.768Z,970.12
2023-02-25T11:57:06.742Z,970.11
2023-02-25T11:58:06.760Z,970.08
2023-02-25T11:59:06.736Z,970.07
2023-02-25T12:00:06.742Z,970.06
2023-02-25T12:01:06.702Z,970.01
2023-02-25T12:02:06.722Z,970.02
2023-02-25T12:03:06.693Z,970.00
2023-02-25T12:04:06.699Z,970.00
2023-02-25T12:05:06.683Z,969.98
2023-02-25T12:06:06.702Z,969.93
2023-02-25T12:07:06.634Z,969.96
2023-02-25T12:08:14.482Z,969.93
2023-02-25T12:09:06.623Z,969.94
2023-02-25T12:10:06.625Z,969.93
2023-02-25T12:11:06.607Z,969.93
2023-02-25T12:12:06.622Z,969.94
2023-02-25T12:13:06.576Z,969.92
2023-02-25T12:14:06.584Z,969.89
2023-02-25T12:15:06.578Z,969.89
2023-02-25T12:16:06.614Z,969.87
2023-02-25T12:17:06.561Z,969.87
2023-02-25T12:18:06.546Z,969.88
2023-02-25T12:19:06.527Z,969.85
2023-02-25T12:20:06.512Z,969.87
2023-02-25T12:21:06.514Z,969.88
2023-02-25T12:22:06.504Z,969.88
2023-02-25T12:23:06.483Z,969.87
2023-02-25T12:24:06.466Z,969.90
2023-02-25T12:25:06.495Z,970.01
2023-02-25T12:26:06.438Z,969.93
2023-02-25T12:27:06.466Z,969.95
2023-02-25T12:28:06.418Z,970.04